KFRGTNCM [JBU787]

Guest
Details From KFRG - Republic
To TNCM - St Maarten - Princess Juliana Intl
Flight Number JBU787
Tags Real Commercial Decoded
Created
Modified
Stats Distance 1,470 nm / 2,722 km
Max Altitude 35,000 ft / 10,668 m
Waypoints 7
Social Downloads 3
Likes 1
Share VATSIM

Download

Looking for another format? Having issues loading an existing format? Contact us
Advertisement - Login to hide

Notes

Decoded

Route

SHIPP LINND SQUAD DARUX DASER ODUCA TNCM

ID Type Via Altitude Latitude Longitude Leg Dist Tot Dist Heading (true) Name
O SHIPP FIX - 0 ft / 0 m 40.32944˚ -73.24728˚ - 0 nm - -
LINND FIX - 35,000 ft / 10,668 m 39.40975˚ -71.71050˚ 89 nm 89 nm 127° / 128° -
SQUAD FIX - 35,000 ft / 10,668 m 37.99817˚ -70.58253˚ 99 nm 189 nm 148° / 148° -
DARUX FIX - 35,000 ft / 10,668 m 36.15989˚ -69.45508˚ 122 nm 312 nm 154° / 154° -
DASER FIX - 35,000 ft / 10,668 m 34.13850˚ -67.57761˚ 152 nm 465 nm 142° / 143° -
ODUCA FIX - 35,000 ft / 10,668 m 21.11681˚ -64.85900˚ 795 nm 1260 nm 169° / 170° -
O TNCM APT - 0 ft / 0 m 18.03937˚ -63.11961˚ 209 nm 1469 nm 152° / 152° -

Altitude Profile

Advertisement - Login to hide

Weather


0- 5 10 15 20 25 30 35+ Temperature / ° C

Clouds and Precipitation
Forecast for 2018-05-26 18:00 UTC. Updated 5 hours ago

Ground ~20,000 ft ~40,000 ft Winds

KFRG

Details ICAO KFRG
Name REPUBLIC
Region United States
Timezone America/New_York (UTC-4.0)
Stats Elevation 82 ft / 25 m (AMSL)
Location 40.728829° -73.413506°
Runways 2
Magnetic Variation 13.180° W

METAR

KFRG 262153Z 20006KT 10SM CLR 25/19 A2980 RMK AO2 LTG DSNT NW SLP091 T02500194

Decode

TAF

Not found

Departure Runways

ID Width Length Bearing (true) Bearing (mag) Surface Threshold Offset Overrun Length
01 150 ft / 46 m 5,525 ft / 1,684 m 359.19° 12.37° Asphalt 0 ft / 0 m 0 ft / 0 m
14 150 ft / 46 m 6,823 ft / 2,080 m 132.34° 145.52° Asphalt 660 ft / 201 m 0 ft / 0 m
19 150 ft / 46 m 5,525 ft / 1,684 m 179.19° 192.37° Asphalt 789 ft / 240 m 0 ft / 0 m
32 150 ft / 46 m 6,823 ft / 2,080 m 312.35° 325.53° Asphalt 0 ft / 0 m 0 ft / 0 m

TNCM

Details ICAO TNCM (SXM)
Name St Maarten - Princess Juliana Intl
Region Caribbean Netherlands, Aruba, Curaçao, Sint Maarten
Timezone Unknown (UTC+0.0)
Stats Elevation 12 ft / 4 m (AMSL)
Location 18.040889° -63.108974°
Runways 1
Magnetic Variation 14.337° W

METAR

TNCM 262200Z 08009KT 050V120 9999 FEW019 28/22 Q1015 NOSIG RMK A2999

Decode

TAF

TAF TNCM 261738Z 2618/2718 10015KT P6SM VCSH SCT018 SCT040

Decode

Destination Runways

ID Width Length Bearing (true) Bearing (mag) Surface Threshold Offset Overrun Length
10 148 ft / 45 m 7,464 ft / 2,275 m 81.43° 95.77° Asphalt 0 ft / 0 m 151 ft / 46 m
28 148 ft / 45 m 7,464 ft / 2,275 m 261.44° 275.78° Asphalt 397 ft / 121 m 0 ft / 0 m